createdAt,value
2019-05-05T00:00:55.083Z,1.87
2019-05-05T00:03:44.449Z,2.10
2019-05-05T00:06:15.772Z,2.08
2019-05-05T00:08:47.355Z,2.02
2019-05-05T00:11:37.200Z,2.45
2019-05-05T00:14:39.832Z,2.50
2019-05-05T00:17:18.351Z,2.25
2019-05-05T00:19:49.734Z,2.37
2019-05-05T00:22:21.384Z,3.25
2019-05-05T00:24:54.640Z,2.70
2019-05-05T00:27:26.524Z,2.42
2019-05-05T00:29:59.446Z,2.80
2019-05-05T00:32:31.172Z,2.10
2019-05-05T00:35:04.339Z,2.15
2019-05-05T00:37:36.279Z,2.72
2019-05-05T00:40:07.909Z,2.95
2019-05-05T00:42:39.501Z,2.20
2019-05-05T00:45:11.476Z,2.10
2019-05-05T00:48:07.808Z,2.40
2019-05-05T00:50:39.610Z,2.77
2019-05-05T00:53:11.319Z,2.75
2019-05-05T00:55:44.255Z,2.50
2019-05-05T00:58:15.946Z,2.98
2019-05-05T01:00:54.853Z,2.80
2019-05-05T01:03:27.876Z,2.90
2019-05-05T01:06:15.165Z,3.35
2019-05-05T01:08:47.222Z,2.83
2019-05-05T01:11:19.408Z,2.80
2019-05-05T01:13:51.104Z,3.20
2019-05-05T01:16:24.770Z,3.00
2019-05-05T01:18:56.283Z,2.92
2019-05-05T01:21:28.041Z,2.72
2019-05-05T01:23:59.800Z,3.08
2019-05-05T01:26:31.339Z,3.00
2019-05-05T01:29:05.289Z,2.90
2019-05-05T01:31:38.601Z,2.65
2019-05-05T01:34:26.235Z,2.80
2019-05-05T01:37:06.337Z,2.77
2019-05-05T01:39:47.143Z,3.05
2019-05-05T01:42:19.140Z,2.80
2019-05-05T01:44:50.809Z,2.95
2019-05-05T01:47:22.440Z,3.00
2019-05-05T01:49:54.543Z,3.02
2019-05-05T01:54:58.074Z,2.83
2019-05-05T01:57:30.079Z,3.17
2019-05-05T02:00:04.247Z,2.55
2019-05-05T02:02:36.509Z,2.17
2019-05-05T02:05:09.358Z,2.50
2019-05-05T02:07:41.012Z,2.77
2019-05-05T02:10:15.274Z,2.62
2019-05-05T02:12:46.919Z,3.17
2019-05-05T02:15:18.935Z,2.30
2019-05-05T02:17:51.600Z,2.50
2019-05-05T02:21:01.364Z,2.70
2019-05-05T02:23:35.131Z,2.25
2019-05-05T02:26:08.150Z,1.85
2019-05-05T02:28:59.165Z,2.62
2019-05-05T02:31:55.051Z,2.10
2019-05-05T02:34:27.467Z,3.00
2019-05-05T02:37:00.233Z,2.95
2019-05-05T02:39:35.232Z,3.00
2019-05-05T02:42:05.944Z,2.92
2019-05-05T02:44:38.308Z,2.75
2019-05-05T02:47:30.418Z,2.42
2019-05-05T02:50:05.452Z,2.30
2019-05-05T02:52:39.795Z,2.95
2019-05-05T02:55:14.666Z,2.52
2019-05-05T02:57:46.921Z,2.40
2019-05-05T03:00:37.468Z,2.67
2019-05-05T03:03:09.867Z,2.12
2019-05-05T03:05:43.479Z,2.90
2019-05-05T03:08:15.401Z,3.30
2019-05-05T03:10:47.263Z,4.78
2019-05-05T03:13:20.162Z,5.62
2019-05-05T03:15:55.232Z,5.40
2019-05-05T03:18:27.201Z,4.30
2019-05-05T03:21:04.475Z,2.80
2019-05-05T03:23:33.467Z,3.12
2019-05-05T03:26:05.608Z,4.10
2019-05-05T03:28:44.407Z,3.52
2019-05-05T03:31:16.428Z,3.60
2019-05-05T03:33:48.049Z,3.47
2019-05-05T03:36:20.392Z,4.08
2019-05-05T03:38:54.132Z,4.17
2019-05-05T03:41:34.470Z,3.77
2019-05-05T03:44:14.957Z,3.08
2019-05-05T03:46:47.005Z,3.70
2019-05-05T03:49:19.225Z,3.83
2019-05-05T03:51:51.113Z,2.65
2019-05-05T03:54:23.861Z,3.17
2019-05-05T03:57:11.431Z,3.20
2019-05-05T03:59:44.430Z,3.12
2019-05-05T04:02:34.141Z,3.05
2019-05-05T04:05:25.416Z,3.27
2019-05-05T04:07:57.455Z,2.90
2019-05-05T04:10:29.389Z,3.05
2019-05-05T04:13:04.678Z,3.00
2019-05-05T04:15:37.892Z,3.00
2019-05-05T04:18:25.501Z,2.67
2019-05-05T04:20:57.238Z,4.12
2019-05-05T04:23:29.158Z,3.60
2019-05-05T04:26:00.954Z,3.02
2019-05-05T04:28:34.543Z,3.40
2019-05-05T04:31:06.337Z,3.52
2019-05-05T04:33:38.104Z,3.20
2019-05-05T04:36:09.902Z,3.87
2019-05-05T04:38:41.338Z,3.45
2019-05-05T04:41:14.047Z,3.62
2019-05-05T04:43:45.821Z,3.70
2019-05-05T04:46:17.304Z,3.27
2019-05-05T04:49:10.763Z,3.85
2019-05-05T04:51:50.089Z,5.42
2019-05-05T04:54:24.454Z,5.65
2019-05-05T04:56:55.917Z,6.75
2019-05-05T04:59:27.426Z,6.75
2019-05-05T05:02:03.994Z,5.55
2019-05-05T05:04:54.581Z,6.25
2019-05-05T05:07:27.546Z,5.62
2019-05-05T05:09:59.204Z,3.52
2019-05-05T05:12:34.179Z,4.90
2019-05-05T05:15:06.273Z,4.08
2019-05-05T05:17:44.498Z,5.58
2019-05-05T05:20:16.104Z,6.62
2019-05-05T05:22:47.898Z,6.70
2019-05-05T05:25:19.262Z,7.28
2019-05-05T05:27:50.823Z,6.10
2019-05-05T05:30:24.272Z,5.70
2019-05-05T05:32:56.027Z,5.28
2019-05-05T05:35:27.735Z,5.00
2019-05-05T05:37:59.453Z,4.40
2019-05-05T05:40:47.793Z,3.75
2019-05-05T05:43:25.366Z,4.00
2019-05-05T05:46:04.621Z,4.75
2019-05-05T05:48:43.464Z,3.70
2019-05-05T05:51:19.486Z,4.37
2019-05-05T05:53:51.263Z,4.70
2019-05-05T05:56:24.972Z,4.78
2019-05-05T05:58:57.801Z,4.25
2019-05-05T06:01:29.296Z,3.92
2019-05-05T06:04:00.955Z,3.92
2019-05-05T06:06:34.510Z,4.25
2019-05-05T06:09:06.885Z,5.15
2019-05-05T06:11:38.864Z,6.08
2019-05-05T06:14:10.834Z,5.22
2019-05-05T06:16:44.504Z,4.30
2019-05-05T06:19:16.101Z,3.70
2019-05-05T06:21:49.042Z,4.33
2019-05-05T06:24:20.845Z,3.83
2019-05-05T06:26:54.716Z,3.50
2019-05-05T06:29:26.636Z,3.65
2019-05-05T06:31:58.101Z,3.98
2019-05-05T06:34:29.716Z,9.23
2019-05-05T06:37:01.500Z,7.28
2019-05-05T06:39:33.594Z,3.87
2019-05-05T06:42:24.551Z,5.65
2019-05-05T06:45:04.140Z,7.47
2019-05-05T06:47:39.860Z,5.72
2019-05-05T06:50:11.619Z,5.20
2019-05-05T06:52:46.535Z,6.15
2019-05-05T06:55:16.908Z,5.10
2019-05-05T06:57:48.727Z,5.45
2019-05-05T07:00:20.237Z,4.67
2019-05-05T07:02:53.928Z,5.47
2019-05-05T07:05:25.553Z,6.58
2019-05-05T07:07:57.428Z,10.00
2019-05-05T07:10:33.724Z,5.10
2019-05-05T07:13:05.264Z,10.03
2019-05-05T07:15:37.053Z,7.10
2019-05-05T07:18:09.005Z,4.50
2019-05-05T07:20:40.682Z,4.92
2019-05-05T07:23:14.515Z,4.37
2019-05-05T07:25:46.414Z,5.37
2019-05-05T07:28:18.106Z,5.92
2019-05-05T07:30:49.665Z,6.42
2019-05-05T07:33:21.456Z,5.67
2019-05-05T07:36:15.113Z,8.23
2019-05-05T07:41:19.297Z,6.00
2019-05-05T07:43:51.084Z,6.60
2019-05-05T07:46:24.142Z,3.87
2019-05-05T07:48:56.024Z,3.90
2019-05-05T07:51:27.951Z,4.95
2019-05-05T07:53:59.633Z,3.52
2019-05-05T07:56:31.354Z,3.95
2019-05-05T07:59:03.834Z,3.85
2019-05-05T08:01:35.692Z,7.62
2019-05-05T08:04:07.529Z,4.25
2019-05-05T08:06:39.029Z,6.25
2019-05-05T08:09:10.820Z,3.30
2019-05-05T08:11:44.484Z,3.40
2019-05-05T08:14:16.249Z,3.17
2019-05-05T08:17:14.550Z,3.92
2019-05-05T08:19:54.342Z,3.72
2019-05-05T08:22:26.256Z,3.72
2019-05-05T08:25:15.585Z,3.65
2019-05-05T08:27:53.692Z,5.00
2019-05-05T08:30:33.527Z,4.17
2019-05-05T08:33:05.562Z,5.47
2019-05-05T08:35:37.268Z,5.47
2019-05-05T08:38:09.079Z,6.65
2019-05-05T08:40:40.912Z,5.30
2019-05-05T08:43:13.866Z,5.17
2019-05-05T08:48:16.178Z,5.80
2019-05-05T08:50:48.896Z,6.28
2019-05-05T08:53:20.795Z,8.33
2019-05-05T08:55:54.546Z,6.35
2019-05-05T08:58:25.996Z,4.50
2019-05-05T09:00:57.661Z,5.42
2019-05-05T09:03:29.492Z,3.77
2019-05-05T09:06:00.912Z,6.30
2019-05-05T09:08:34.557Z,13.70
2019-05-05T09:13:36.608Z,4.25
2019-05-05T09:16:08.284Z,5.12
2019-05-05T09:18:58.175Z,4.58
2019-05-05T09:21:29.805Z,4.35
2019-05-05T09:24:18.181Z,4.12
2019-05-05T09:26:58.378Z,4.28
2019-05-05T09:29:34.833Z,4.10
2019-05-05T09:32:06.783Z,3.80
2019-05-05T09:34:38.329Z,4.67
2019-05-05T09:37:10.393Z,3.72
2019-05-05T09:39:43.685Z,5.80
2019-05-05T09:42:15.462Z,4.80
2019-05-05T09:44:47.088Z,4.08
2019-05-05T09:47:18.755Z,5.00
2019-05-05T09:49:50.639Z,4.15
2019-05-05T09:52:24.284Z,3.65
2019-05-05T09:54:55.695Z,3.72
2019-05-05T09:57:27.507Z,3.72
2019-05-05T10:00:13.831Z,4.15
2019-05-05T10:02:45.030Z,4.58
2019-05-05T10:05:16.855Z,5.00
2019-05-05T10:07:49.191Z,4.25
2019-05-05T10:10:20.951Z,4.75
2019-05-05T10:12:54.883Z,3.85
2019-05-05T10:15:26.113Z,3.58
2019-05-05T10:17:57.935Z,3.83
2019-05-05T10:20:29.536Z,3.17
2019-05-05T10:23:01.467Z,3.58
2019-05-05T10:25:53.968Z,3.70
2019-05-05T10:28:25.924Z,9.33
2019-05-05T10:30:57.605Z,3.50
2019-05-05T10:33:29.908Z,3.33
2019-05-05T10:36:01.559Z,3.90
2019-05-05T10:38:34.397Z,3.20
2019-05-05T10:41:06.421Z,3.30
2019-05-05T10:43:38.547Z,3.60
2019-05-05T10:46:10.234Z,3.58
2019-05-05T10:48:41.791Z,3.22
2019-05-05T10:51:13.347Z,3.12
2019-05-05T10:53:45.213Z,3.52
2019-05-05T10:56:17.408Z,3.75
2019-05-05T10:58:49.088Z,4.50
2019-05-05T11:01:20.790Z,4.03
2019-05-05T11:03:52.588Z,5.00
2019-05-05T11:06:24.392Z,3.80
2019-05-05T11:08:56.012Z,3.62
2019-05-05T11:11:27.761Z,3.70
2019-05-05T11:14:00.053Z,3.80
2019-05-05T11:16:31.879Z,3.47
2019-05-05T11:19:04.348Z,3.65
2019-05-05T11:21:36.152Z,3.83
2019-05-05T11:24:08.039Z,3.72
2019-05-05T11:26:39.919Z,4.08
2019-05-05T11:29:13.561Z,4.05
2019-05-05T11:31:45.654Z,4.22
2019-05-05T11:34:24.773Z,4.10
2019-05-05T11:37:11.442Z,3.83
2019-05-05T11:39:44.531Z,3.65
2019-05-05T11:42:17.270Z,3.25
2019-05-05T11:44:48.800Z,3.00
2019-05-05T11:47:21.287Z,3.70
2019-05-05T11:49:56.197Z,3.15
2019-05-05T11:52:26.417Z,2.67
2019-05-05T11:55:08.995Z,3.02
2019-05-05T11:57:33.442Z,2.87
2019-05-05T12:00:05.434Z,3.00
2019-05-05T12:02:37.351Z,2.35
2019-05-05T12:05:09.077Z,2.33
2019-05-05T12:07:40.750Z,3.22
2019-05-05T12:10:31.637Z,3.02
2019-05-05T12:13:04.431Z,3.05
2019-05-05T12:15:36.389Z,2.70
2019-05-05T12:18:08.109Z,2.75
2019-05-05T12:20:40.539Z,2.83
2019-05-05T12:23:12.322Z,2.70
2019-05-05T12:25:59.643Z,2.72
2019-05-05T12:28:39.142Z,2.62
2019-05-05T12:31:15.871Z,2.40
2019-05-05T12:33:47.623Z,2.10
2019-05-05T12:36:20.363Z,2.98
2019-05-05T12:38:54.408Z,2.50
2019-05-05T12:41:25.575Z,2.27
2019-05-05T12:43:57.262Z,2.12
2019-05-05T12:46:50.640Z,2.40
2019-05-05T12:49:25.256Z,2.40
2019-05-05T12:51:55.840Z,2.47
2019-05-05T12:54:27.454Z,1.85
2019-05-05T12:56:59.298Z,2.15
2019-05-05T12:59:31.144Z,1.77
2019-05-05T13:02:03.801Z,2.20
2019-05-05T13:04:35.728Z,2.15
2019-05-05T13:07:08.281Z,2.22
2019-05-05T13:09:40.228Z,2.40
2019-05-05T13:12:12.095Z,1.82
2019-05-05T13:14:44.259Z,2.52
2019-05-05T13:17:15.861Z,2.30
2019-05-05T13:19:55.670Z,2.00
2019-05-05T13:23:01.616Z,1.92
2019-05-05T13:25:58.469Z,1.90
2019-05-05T13:28:28.434Z,2.45
2019-05-05T13:31:00.037Z,1.75
2019-05-05T13:33:33.608Z,2.10
2019-05-05T13:36:05.107Z,1.72
2019-05-05T13:38:36.759Z,2.20
2019-05-05T13:41:08.424Z,1.87
2019-05-05T13:43:40.397Z,1.75
2019-05-05T13:46:36.927Z,1.87
2019-05-05T13:49:46.358Z,1.80
2019-05-05T13:52:18.272Z,1.45
2019-05-05T13:54:50.227Z,1.77
2019-05-05T13:57:21.989Z,1.82
2019-05-05T13:59:54.600Z,2.05
2019-05-05T14:02:26.590Z,1.50
2019-05-05T14:04:58.512Z,2.05
2019-05-05T14:07:30.352Z,1.75
2019-05-05T14:10:03.788Z,2.80
2019-05-05T14:12:36.483Z,1.85
2019-05-05T14:15:09.796Z,1.60
2019-05-05T14:17:43.943Z,1.65
2019-05-05T14:20:16.328Z,1.80
2019-05-05T14:22:47.944Z,1.77
2019-05-05T14:25:24.695Z,1.90
2019-05-05T14:27:56.337Z,1.57
2019-05-05T14:30:49.862Z,1.87
2019-05-05T14:33:25.858Z,1.82
2019-05-05T14:36:13.686Z,1.98
2019-05-05T14:38:51.045Z,1.60
2019-05-05T14:41:22.640Z,1.37
2019-05-05T14:43:56.563Z,1.57
2019-05-05T14:46:28.263Z,1.35
2019-05-05T14:48:59.946Z,1.30
2019-05-05T14:51:34.021Z,2.02
2019-05-05T14:54:10.814Z,1.15
2019-05-05T14:56:44.062Z,2.55
2019-05-05T14:59:16.058Z,1.40
2019-05-05T15:01:47.961Z,1.50
2019-05-05T15:04:20.853Z,1.77
2019-05-05T15:07:30.094Z,2.05
2019-05-05T15:10:36.569Z,1.57
2019-05-05T15:13:10.074Z,1.57
2019-05-05T15:15:42.071Z,1.82
2019-05-05T15:18:14.653Z,1.37
2019-05-05T15:20:46.629Z,1.75
2019-05-05T15:23:18.484Z,1.10
2019-05-05T15:25:50.215Z,1.62
2019-05-05T15:28:21.931Z,1.45
2019-05-05T15:30:54.504Z,1.65
2019-05-05T15:33:26.587Z,1.35
2019-05-05T15:35:58.408Z,1.50
2019-05-05T15:38:30.325Z,1.45
2019-05-05T15:41:03.880Z,1.70
2019-05-05T15:43:35.424Z,1.77
2019-05-05T15:46:07.347Z,1.27
2019-05-05T15:48:39.276Z,1.65
2019-05-05T15:51:10.931Z,1.20
2019-05-05T15:53:42.487Z,1.65
2019-05-05T15:56:14.399Z,1.70
2019-05-05T15:58:46.242Z,2.02
2019-05-05T16:01:18.127Z,1.90
2019-05-05T16:03:49.757Z,1.57
2019-05-05T16:06:23.636Z,2.00
2019-05-05T16:08:56.672Z,2.20
2019-05-05T16:11:28.841Z,2.30
2019-05-05T16:14:01.213Z,1.80
2019-05-05T16:16:57.912Z,2.52
2019-05-05T16:19:55.082Z,2.00
2019-05-05T16:22:46.183Z,4.12
2019-05-05T16:25:17.851Z,2.08
2019-05-05T16:27:49.723Z,2.62
2019-05-05T16:30:23.562Z,3.00
2019-05-05T16:32:55.573Z,2.92
2019-05-05T16:35:27.396Z,2.95
2019-05-05T16:37:58.944Z,3.27
2019-05-05T16:40:30.599Z,2.35
2019-05-05T16:43:01.999Z,2.50
2019-05-05T16:45:34.138Z,2.27
2019-05-05T16:48:05.872Z,2.37
2019-05-05T16:50:37.724Z,3.12
2019-05-05T16:53:11.078Z,2.75
2019-05-05T16:55:50.401Z,3.95
2019-05-05T16:58:23.973Z,6.70
2019-05-05T17:00:55.850Z,3.67
2019-05-05T17:03:27.718Z,3.20
2019-05-05T17:05:59.657Z,3.62
2019-05-05T17:08:31.362Z,4.70
2019-05-05T17:11:03.197Z,5.00
2019-05-05T17:13:44.042Z,5.55
2019-05-05T17:16:28.882Z,8.00
2019-05-05T17:19:19.753Z,5.37
2019-05-05T17:22:09.214Z,4.97
2019-05-05T17:24:40.911Z,8.05
2019-05-05T17:27:13.911Z,9.95
2019-05-05T17:32:16.194Z,5.50
2019-05-05T17:34:47.851Z,6.42
2019-05-05T17:37:19.865Z,8.73
2019-05-05T17:39:57.979Z,9.20
2019-05-05T17:42:38.911Z,9.90
2019-05-05T17:45:23.921Z,9.90
2019-05-05T17:48:09.633Z,6.70
2019-05-05T17:50:59.179Z,8.00
2019-05-05T17:53:48.857Z,6.33
2019-05-05T17:56:20.873Z,4.00
2019-05-05T17:58:53.802Z,4.40
2019-05-05T18:01:25.735Z,4.72
2019-05-05T18:03:57.480Z,5.08
2019-05-05T18:06:39.750Z,5.87
2019-05-05T18:09:39.238Z,7.55
2019-05-05T18:12:29.850Z,5.30
2019-05-05T18:15:04.595Z,6.10
2019-05-05T18:17:37.132Z,6.30
2019-05-05T18:20:09.099Z,6.10
2019-05-05T18:22:40.444Z,5.55
2019-05-05T18:25:11.962Z,5.50
2019-05-05T18:27:43.932Z,7.17
2019-05-05T18:30:16.173Z,7.87
2019-05-05T18:32:48.378Z,8.30
2019-05-05T18:35:20.162Z,7.58
2019-05-05T18:37:54.327Z,6.78
2019-05-05T18:40:25.799Z,17.98
2019-05-05T18:42:59.116Z,38.70
2019-05-05T18:45:30.542Z,31.52
2019-05-05T18:48:04.399Z,25.23
2019-05-05T18:50:36.162Z,12.55
2019-05-05T18:53:08.069Z,10.85
2019-05-05T18:55:39.522Z,12.37
2019-05-05T18:58:12.247Z,14.23
2019-05-05T19:01:03.802Z,15.53
2019-05-05T19:03:54.510Z,17.52
2019-05-05T19:06:44.045Z,13.38
2019-05-05T19:09:19.999Z,7.30
2019-05-05T19:11:52.020Z,8.63
2019-05-05T19:14:24.335Z,9.53
2019-05-05T19:16:56.174Z,6.12
2019-05-05T19:19:27.742Z,5.75
2019-05-05T19:22:05.523Z,6.92
2019-05-05T19:24:37.104Z,5.10
2019-05-05T19:27:09.241Z,4.53
2019-05-05T19:29:41.104Z,5.08
2019-05-05T19:32:13.094Z,6.72
2019-05-05T19:34:45.034Z,7.50
2019-05-05T19:37:16.685Z,11.75
2019-05-05T19:39:48.404Z,13.60
2019-05-05T19:42:20.072Z,13.22
2019-05-05T19:44:51.768Z,11.45
2019-05-05T19:47:24.635Z,11.10
2019-05-05T19:50:14.411Z,10.28
2019-05-05T19:52:47.214Z,7.65
2019-05-05T19:55:19.049Z,5.50
2019-05-05T19:57:51.160Z,3.83
2019-05-05T20:00:23.433Z,4.42
2019-05-05T20:03:04.319Z,4.85
2019-05-05T20:05:30.248Z,4.40
2019-05-05T20:08:03.909Z,4.05
2019-05-05T20:10:35.522Z,3.85
2019-05-05T20:13:07.079Z,3.55
2019-05-05T20:15:48.152Z,3.83
2019-05-05T20:18:21.069Z,3.65
2019-05-05T20:21:03.623Z,4.20
2019-05-05T20:25:56.872Z,4.00
2019-05-05T20:28:28.713Z,4.33
2019-05-05T20:31:00.626Z,4.50
2019-05-05T20:33:41.480Z,3.87
2019-05-05T20:36:16.424Z,2.87
2019-05-05T20:38:50.249Z,3.25
2019-05-05T20:41:24.918Z,3.70
2019-05-05T20:43:56.935Z,3.77
2019-05-05T20:46:28.526Z,4.28
2019-05-05T20:49:00.130Z,3.45
2019-05-05T20:51:33.841Z,3.37
2019-05-05T20:54:05.366Z,2.75
2019-05-05T20:56:37.072Z,3.70
2019-05-05T20:59:08.905Z,3.08
2019-05-05T21:01:40.725Z,3.05
2019-05-05T21:04:14.096Z,3.12
2019-05-05T21:06:46.937Z,3.10
2019-05-05T21:09:18.394Z,3.40
2019-05-05T21:11:50.165Z,2.77
2019-05-05T21:14:32.008Z,3.60
2019-05-05T21:16:56.563Z,3.75
2019-05-05T21:19:28.294Z,3.58
2019-05-05T21:22:04.103Z,3.08
2019-05-05T21:24:35.853Z,3.30
2019-05-05T21:27:07.597Z,2.90
2019-05-05T21:29:42.234Z,3.80
2019-05-05T21:32:13.792Z,3.55
2019-05-05T21:34:45.636Z,3.70
2019-05-05T21:37:17.376Z,3.58
2019-05-05T21:39:49.394Z,2.55
2019-05-05T21:42:21.320Z,3.42
2019-05-05T21:44:53.888Z,3.15
2019-05-05T21:47:25.808Z,2.15
2019-05-05T21:49:57.296Z,2.60
2019-05-05T21:52:41.282Z,2.40
2019-05-05T21:55:33.894Z,2.27
2019-05-05T21:58:18.412Z,2.20
2019-05-05T22:01:04.670Z,2.10
2019-05-05T22:03:38.543Z,2.22
2019-05-05T22:06:10.238Z,2.47
2019-05-05T22:08:41.978Z,2.42
2019-05-05T22:11:14.668Z,2.30
2019-05-05T22:13:47.027Z,2.05
2019-05-05T22:16:18.914Z,2.50
2019-05-05T22:18:50.607Z,3.00
2019-05-05T22:21:31.412Z,3.08
2019-05-05T22:24:19.728Z,2.50
2019-05-05T22:26:51.430Z,2.83
2019-05-05T22:29:24.950Z,2.17
2019-05-05T22:31:56.864Z,2.90
2019-05-05T22:34:29.143Z,1.90
2019-05-05T22:37:00.962Z,1.90
2019-05-05T22:39:33.806Z,1.77
2019-05-05T22:42:05.490Z,1.85
2019-05-05T22:44:37.263Z,1.60
2019-05-05T22:47:09.138Z,1.55
2019-05-05T22:49:41.180Z,1.70
2019-05-05T22:52:14.458Z,1.60
2019-05-05T22:54:46.051Z,1.90
2019-05-05T22:57:17.868Z,1.95
2019-05-05T22:59:49.729Z,1.95
2019-05-05T23:02:24.461Z,1.80
2019-05-05T23:05:11.923Z,2.02
2019-05-05T23:07:43.901Z,2.05
2019-05-05T23:10:16.090Z,2.08
2019-05-05T23:12:47.729Z,2.00
2019-05-05T23:15:19.751Z,2.10
2019-05-05T23:18:06.682Z,1.70
2019-05-05T23:21:19.489Z,2.00
2019-05-05T23:24:05.407Z,1.95
2019-05-05T23:26:38.731Z,1.75
2019-05-05T23:31:40.798Z,1.90
2019-05-05T23:34:14.567Z,2.12
2019-05-05T23:36:46.159Z,1.80
2019-05-05T23:39:17.903Z,1.92
2019-05-05T23:41:49.645Z,1.75
2019-05-05T23:44:21.456Z,2.35
2019-05-05T23:46:53.887Z,2.37
2019-05-05T23:49:25.640Z,2.40
2019-05-05T23:51:57.558Z,2.25
2019-05-05T23:54:29.144Z,2.52
2019-05-05T23:57:00.843Z,2.47
2019-05-05T23:59:32.509Z,2.37
